Time;durP1;ratioP1;P1;durP2;ratioP2;P2;SDS_P1;SDS_P2;PMS_P1;PMS_P2;Temp;Humidity;BMP_temperature;BMP_pressure;BME280_temperature;BME280_humidity;BME280_pressure;Samples;Min_cycle;Max_cycle;Signal;HPM_P1;HPM_P2
2022/01/07 00:01:45;;;;;;;0.70;0.70;;;;;;;5.15;83.77;92069.56;4998609;28;20582;-72
2022/01/07 00:04:12;;;;;;;0.77;0.77;;;;;;;4.80;84.01;92027.28;4998725;28;20235;-72
2022/01/07 00:06:39;;;;;;;1.17;1.17;;;;;;;4.94;85.03;92081.06;5000073;28;20433;-72
2022/01/07 00:09:07;;;;;;;0.97;0.97;;;;;;;5.03;85.20;92096.66;4998520;28;20471;-72
2022/01/07 00:11:34;;;;;;;1.10;1.10;;;;;;;5.04;85.08;92091.63;4998842;28;20587;-72
2022/01/07 00:14:01;;;;;;;0.83;0.83;;;;;;;4.85;85.73;92073.00;4997832;28;20476;-72
2022/01/07 00:16:28;;;;;;;1.30;1.20;;;;;;;4.93;85.77;92093.63;4998989;28;20606;-72
2022/01/07 00:18:57;;;;;;;1.70;1.23;;;;;;;4.94;86.06;92100.28;4998346;28;20676;-72
2022/01/07 00:21:25;;;;;;;0.90;0.90;;;;;;;4.94;85.96;92098.59;4998394;28;20617;-72
2022/01/07 00:23:52;;;;;;;2.63;2.53;;;;;;;5.14;85.13;92102.16;4998366;28;20187;-72
2022/01/07 00:26:19;;;;;;;5.23;4.03;;;;;;;5.19;84.35;92090.31;4997763;28;20652;-72
2022/01/07 00:28:47;;;;;;;5.87;2.83;;;;;;;5.34;83.94;92113.22;4998174;28;20206;-72
2022/01/07 00:31:14;;;;;;;3.57;3.37;;;;;;;5.25;83.30;92093.44;4997830;28;20237;-72
2022/01/07 00:33:43;;;;;;;7.73;5.13;;;;;;;5.23;84.43;92112.72;4998075;28;20195;-72
2022/01/07 00:36:13;;;;;;;4.60;4.20;;;;;;;5.12;84.25;92091.41;4997718;28;20590;-72
2022/01/07 00:38:40;;;;;;;5.50;5.23;;;;;;;4.85;85.89;92078.00;4997806;28;20527;-72
2022/01/07 00:41:08;;;;;;;7.23;4.00;;;;;;;4.89;86.39;92092.91;4998138;28;20517;-72
2022/01/07 00:43:35;;;;;;;3.03;2.93;;;;;;;5.07;85.70;92108.25;4997908;28;20612;-72
2022/01/07 00:46:02;;;;;;;3.40;2.47;;;;;;;5.14;84.52;92119.69;4997889;28;20597;-72
2022/01/07 00:48:30;;;;;;;1.80;1.70;;;;;;;5.12;84.34;92109.75;4999056;28;20587;-72
2022/01/07 00:50:57;;;;;;;4.33;2.70;;;;;;;5.13;84.82;92110.53;4997056;28;20276;-72
2022/01/07 00:53:25;;;;;;;1.93;1.83;;;;;;;5.04;85.67;92105.81;4998091;28;20198;-72
2022/01/07 00:55:53;;;;;;;0.90;0.90;;;;;;;4.98;85.96;92097.63;4997498;28;20594;-72
2022/01/07 00:58:20;;;;;;;1.03;1.00;;;;;;;5.00;86.61;92105.94;4997280;28;20230;-72
2022/01/07 01:00:47;;;;;;;0.87;0.87;;;;;;;4.95;86.41;92094.41;4996223;28;20543;-72
2022/01/07 01:03:14;;;;;;;1.13;1.13;;;;;;;5.14;86.45;92107.16;4998618;28;20480;-72
2022/01/07 01:05:44;;;;;;;1.03;1.00;;;;;;;5.24;85.12;92096.81;4998162;28;20571;-72
2022/01/07 01:08:12;;;;;;;2.37;2.17;;;;;;;5.32;84.78;92094.91;4998320;28;20523;-72
2022/01/07 01:10:41;;;;;;;2.70;2.50;;;;;;;5.34;84.73;92103.19;4997078;28;20213;-72
2022/01/07 01:13:09;;;;;;;1.67;1.60;;;;;;;5.38;84.05;92111.44;4996728;28;20269;-72
2022/01/07 01:15:36;;;;;;;3.70;2.57;;;;;;;5.38;84.14;92117.25;4998139;28;20452;-72
2022/01/07 01:18:03;;;;;;;3.40;3.07;;;;;;;5.12;85.21;92081.38;4996562;28;20523;-72
2022/01/07 01:20:31;;;;;;;7.17;3.77;;;;;;;5.31;84.44;92099.97;4996133;28;20559;-72
2022/01/07 01:22:59;;;;;;;10.43;6.37;;;;;;;5.31;84.76;92113.31;4998398;28;20634;-72
2022/01/07 01:25:26;;;;;;;14.83;6.93;;;;;;;5.24;84.30;92101.81;4996590;28;20587;-72
2022/01/07 01:27:55;;;;;;;7.43;4.87;;;;;;;5.11;84.37;92087.25;4997316;28;20550;-72
2022/01/07 01:30:26;;;;;;;18.57;8.97;;;;;;;5.29;84.89;92124.25;4997294;28;20598;-72
2022/01/07 01:32:54;;;;;;;11.47;6.03;;;;;;;5.12;84.39;92103.91;4996496;28;20575;-72
2022/01/07 01:35:22;;;;;;;4.63;4.33;;;;;;;5.03;86.49;92121.69;4996980;28;20511;-71
2022/01/07 01:37:51;;;;;;;4.93;4.63;;;;;;;4.68;86.58;92076.00;4996677;28;20738;-71
2022/01/07 01:40:20;;;;;;;5.17;4.73;;;;;;;4.68;87.02;92087.69;4996507;28;20595;-72
2022/01/07 01:42:52;;;;;;;5.13;4.40;;;;;;;4.79;87.63;92120.75;4997524;28;20460;-72
2022/01/07 01:45:22;;;;;;;7.63;4.27;;;;;;;4.65;88.58;92117.81;4997289;28;20594;-72
2022/01/07 01:47:49;;;;;;;4.77;4.33;;;;;;;4.59;89.42;92128.81;4996627;28;20471;-72
2022/01/07 01:50:16;;;;;;;3.53;3.33;;;;;;;4.58;89.30;92129.69;4996748;28;20562;-72
2022/01/07 01:52:46;;;;;;;4.27;3.07;;;;;;;4.68;88.87;92132.72;4997959;28;20218;-72
2022/01/07 01:55:16;;;;;;;7.07;3.83;;;;;;;4.65;88.76;92127.81;4996768;28;20272;-72
2022/01/07 01:57:43;;;;;;;4.07;3.73;;;;;;;4.50;89.11;92122.41;4995859;28;20222;-72
2022/01/07 02:00:12;;;;;;;7.03;4.40;;;;;;;4.33;90.01;92114.56;4996099;28;20566;-72
2022/01/07 02:02:41;;;;;;;3.00;2.90;;;;;;;4.67;88.38;92136.13;4996292;28;20468;-72
2022/01/07 02:05:11;;;;;;;3.00;2.80;;;;;;;4.56;88.31;92129.72;4996855;28;20467;-72
2022/01/07 02:07:40;;;;;;;2.27;2.23;;;;;;;4.61;88.74;92133.78;4996294;28;20538;-72
2022/01/07 02:10:10;;;;;;;2.27;2.17;;;;;;;4.79;88.02;92149.06;4997588;28;20590;-72
2022/01/07 02:12:38;;;;;;;2.63;2.30;;;;;;;4.79;87.71;92146.56;4996411;28;20571;-72
2022/01/07 02:15:06;;;;;;;3.30;3.20;;;;;;;4.54;89.16;92118.94;4996446;28;20587;-72
2022/01/07 02:17:36;;;;;;;2.40;2.23;;;;;;;4.36;90.53;92126.97;4995854;28;20226;-71
2022/01/07 02:20:07;;;;;;;5.57;1.57;;;;;;;4.31;91.59;92135.44;4996213;28;20471;-71
2022/01/07 02:22:34;;;;;;;3.07;1.50;;;;;;;4.22;91.54;92134.03;4997363;28;20302;-71
2022/01/07 02:25:01;;;;;;;2.97;2.13;;;;;;;4.11;92.26;92131.00;4995583;28;20489;-71
2022/01/07 02:27:31;;;;;;;3.17;2.87;;;;;;;4.38;91.47;92147.75;4995808;28;20551;-72
2022/01/07 02:29:59;;;;;;;2.23;2.13;;;;;;;4.37;91.06;92147.78;4996337;28;20574;-71
2022/01/07 02:32:26;;;;;;;4.50;2.40;;;;;;;4.47;90.58;92139.16;4996148;28;20681;-72
2022/01/07 02:34:53;;;;;;;6.57;3.20;;;;;;;4.52;89.76;92135.66;4995894;28;20214;-71
2022/01/07 02:37:22;;;;;;;1.73;1.70;;;;;;;4.56;89.43;92128.91;4995370;28;20661;-71
2022/01/07 02:39:51;;;;;;;1.70;1.60;;;;;;;4.58;89.13;92143.00;4995592;28;20477;-72
2022/01/07 02:42:18;;;;;;;1.30;1.30;;;;;;;4.61;89.32;92142.13;4996020;28;20562;-72
2022/01/07 02:44:45;;;;;;;1.43;1.43;;;;;;;4.62;89.17;92150.44;4996180;28;20503;-71
2022/01/07 02:47:12;;;;;;;1.30;1.20;;;;;;;4.72;88.24;92150.13;4995664;28;20582;-71
2022/01/07 02:49:40;;;;;;;1.37;1.37;;;;;;;4.39;87.94;92096.88;4995641;28;20559;-71
2022/01/07 02:52:07;;;;;;;3.70;1.53;;;;;;;4.81;89.06;92147.34;4995863;28;20206;-72
2022/01/07 02:54:36;;;;;;;9.10;5.60;;;;;;;4.71;89.08;92148.50;4995748;28;20591;-72
2022/01/07 02:57:03;;;;;;;6.93;4.00;;;;;;;4.68;88.48;92158.56;4995968;28;20646;-72
2022/01/07 02:59:30;;;;;;;33.17;11.73;;;;;;;4.52;90.17;92160.69;4995516;28;20587;-72
2022/01/07 03:01:58;;;;;;;10.20;5.27;;;;;;;4.56;89.21;92151.44;4996867;28;20198;-71
2022/01/07 03:04:27;;;;;;;5.43;5.00;;;;;;;4.61;89.55;92174.63;4995206;28;20570;-72
2022/01/07 03:06:55;;;;;;;9.53;6.30;;;;;;;4.66;89.30;92177.81;4995138;28;20598;-72
2022/01/07 03:09:22;;;;;;;9.23;6.27;;;;;;;4.58;88.60;92164.69;4995995;28;20491;-72
2022/01/07 03:11:51;;;;;;;11.53;6.47;;;;;;;4.60;89.02;92173.00;4996473;28;20199;-72
2022/01/07 03:14:19;;;;;;;4.83;4.50;;;;;;;4.49;88.63;92165.78;4995462;28;20650;-71
2022/01/07 03:16:46;;;;;;;5.13;4.67;;;;;;;4.45;89.01;92173.41;4994973;28;20195;-71
2022/01/07 03:19:13;;;;;;;10.50;6.20;;;;;;;4.48;89.01;92184.16;4995177;28;20503;-72
2022/01/07 03:21:40;;;;;;;6.93;5.97;;;;;;;4.58;88.44;92197.22;4995430;28;20499;-73
2022/01/07 03:24:08;;;;;;;9.57;6.37;;;;;;;4.54;88.64;92200.66;4998200;28;20628;-72
2022/01/07 03:26:35;;;;;;;7.37;5.90;;;;;;;4.42;89.27;92200.97;4998893;28;20246;-72
2022/01/07 03:29:04;;;;;;;15.00;6.70;;;;;;;4.57;88.15;92213.06;4999924;28;20586;-72
2022/01/07 03:31:31;;;;;;;9.83;5.40;;;;;;;4.44;88.18;92191.78;4999122;28;20563;-72
2022/01/07 03:33:58;;;;;;;6.13;5.53;;;;;;;4.62;87.71;92217.97;4999523;28;20559;-72
2022/01/07 03:36:25;;;;;;;5.77;5.23;;;;;;;4.60;87.54;92220.50;4999092;28;20544;-72
2022/01/07 03:38:53;;;;;;;2.73;2.63;;;;;;;4.38;88.08;92204.44;4999264;28;20499;-72
2022/01/07 03:41:20;;;;;;;2.20;2.00;;;;;;;4.40;89.62;92218.53;4999776;28;20526;-72
2022/01/07 03:43:47;;;;;;;2.10;2.00;;;;;;;4.16;90.72;92217.50;4998982;28;20566;-72
2022/01/07 03:46:16;;;;;;;2.53;2.33;;;;;;;3.94;91.98;92208.06;4998793;28;20272;-72
2022/01/07 03:48:44;;;;;;;2.67;2.47;;;;;;;3.63;92.26;92163.84;4999734;28;20629;-72
2022/01/07 03:51:12;;;;;;;4.17;2.57;;;;;;;4.10;91.28;92219.31;4998400;28;20557;-71
2022/01/07 03:53:39;;;;;;;3.60;3.30;;;;;;;4.32;90.15;92229.59;4998651;28;20436;-72
2022/01/07 03:56:06;;;;;;;7.40;3.17;;;;;;;4.11;90.16;92204.25;4999064;28;20485;-72
2022/01/07 03:58:34;;;;;;;6.13;3.13;;;;;;;4.32;89.57;92222.91;4998182;28;20537;-72
2022/01/07 04:01:01;;;;;;;3.87;3.67;;;;;;;4.43;89.14;92245.16;4998543;28;20633;-72
2022/01/07 04:03:30;;;;;;;2.97;2.77;;;;;;;4.36;89.41;92233.66;4998587;28;20493;-73
2022/01/07 04:05:57;;;;;;;2.83;2.53;;;;;;;4.22;90.65;92249.03;4998453;28;20586;-73
2022/01/07 04:08:24;;;;;;;2.70;2.60;;;;;;;4.11;90.99;92229.25;4997923;28;20198;-72
2022/01/07 04:10:53;;;;;;;2.00;1.90;;;;;;;4.19;90.10;92254.06;4998838;28;20632;-73
2022/01/07 04:13:20;;;;;;;4.13;2.13;;;;;;;4.25;89.42;92253.94;4998687;28;20568;-73
2022/01/07 04:15:48;;;;;;;3.07;2.97;;;;;;;4.33;88.96;92269.56;4999363;28;20577;-72
2022/01/07 04:18:15;;;;;;;2.83;2.60;;;;;;;4.20;88.91;92243.22;4998309;28;20210;-73
2022/01/07 04:20:44;;;;;;;4.03;3.83;;;;;;;4.28;89.40;92263.84;4998331;28;20464;-72
2022/01/07 04:23:11;;;;;;;5.40;5.00;;;;;;;4.05;89.32;92241.13;4999251;28;20585;-73
2022/01/07 04:25:38;;;;;;;7.07;6.40;;;;;;;3.96;89.41;92231.31;4998290;28;20486;-72
2022/01/07 04:28:08;;;;;;;20.23;9.23;;;;;;;3.93;89.41;92231.41;4998435;28;20489;-72
2022/01/07 04:30:37;;;;;;;13.87;5.70;;;;;;;3.79;90.63;92233.41;4998102;28;20203;-72
2022/01/07 04:33:06;;;;;;;4.90;4.60;;;;;;;3.89;91.98;92275.63;4997896;28;20569;-73
2022/01/07 04:35:36;;;;;;;4.17;3.87;;;;;;;3.99;91.93;92289.56;4998060;28;20571;-73
2022/01/07 04:38:06;;;;;;;6.77;6.13;;;;;;;4.04;91.05;92274.47;4997701;28;20632;-73
2022/01/07 04:40:33;;;;;;;5.90;5.33;;;;;;;4.18;89.38;92283.25;4997884;28;20622;-73
2022/01/07 04:43:01;;;;;;;17.67;10.13;;;;;;;4.16;90.34;92284.16;4998153;28;20586;-73
2022/01/07 04:45:29;;;;;;;13.63;9.33;;;;;;;3.87;91.57;92272.34;4998074;28;20443;-73
2022/01/07 04:47:56;;;;;;;11.07;8.80;;;;;;;4.04;91.31;92291.94;4998140;28;20636;-72
2022/01/07 04:50:24;;;;;;;9.83;8.90;;;;;;;4.17;89.28;92295.78;4997868;28;20195;-73
2022/01/07 04:52:53;;;;;;;11.00;9.97;;;;;;;3.89;90.14;92267.34;4997904;28;20654;-73
2022/01/07 04:55:23;;;;;;;15.63;10.40;;;;;;;4.08;90.52;92299.34;4997697;28;20585;-73
2022/01/07 04:57:52;;;;;;;12.03;10.40;;;;;;;4.13;90.34;92300.03;4996959;28;20517;-73
2022/01/07 05:00:21;;;;;;;20.67;11.53;;;;;;;3.59;90.40;92213.91;4997520;28;20547;-73
2022/01/07 05:02:49;;;;;;;22.10;13.17;;;;;;;3.97;90.34;92303.75;4998095;28;20465;-73
2022/01/07 05:05:16;;;;;;;27.73;13.40;;;;;;;4.02;90.72;92314.47;4997056;28;20497;-73
2022/01/07 05:07:43;;;;;;;18.23;13.33;;;;;;;3.61;91.06;92252.94;4997747;28;20594;-72
2022/01/07 05:10:13;;;;;;;20.93;12.23;;;;;;;3.72;90.96;92287.66;4996497;28;20615;-72
2022/01/07 05:12:43;;;;;;;25.63;12.40;;;;;;;3.86;90.99;92315.69;4997582;28;20609;-73
2022/01/07 05:15:11;;;;;;;17.47;8.77;;;;;;;3.39;91.72;92279.25;4997056;28;20688;-72
2022/01/07 05:17:38;;;;;;;21.30;11.27;;;;;;;3.53;93.54;92321.41;4997820;28;20501;-72
2022/01/07 05:20:06;;;;;;;17.70;13.83;;;;;;;3.37;94.37;92315.09;4996908;28;20225;-73
2022/01/07 05:22:34;;;;;;;30.07;13.47;;;;;;;3.52;93.79;92324.75;4996975;28;20470;-73
2022/01/07 05:25:01;;;;;;;8.57;7.77;;;;;;;3.58;93.03;92329.63;4998113;28;20567;-73
2022/01/07 05:27:28;;;;;;;11.70;7.87;;;;;;;3.60;91.43;92316.25;4996598;28;20645;-73
2022/01/07 05:29:59;;;;;;;20.80;12.70;;;;;;;3.88;90.70;92343.13;4996579;28;20217;-72
2022/01/07 05:32:27;;;;;;;25.80;13.87;;;;;;;3.82;90.72;92334.09;4995297;28;20233;-72
2022/01/07 05:34:54;;;;;;;42.37;17.33;;;;;;;3.81;91.26;92344.13;4996969;28;20563;-72
2022/01/07 05:37:24;;;;;;;30.60;16.23;;;;;;;3.70;92.16;92347.69;5000628;28;20617;-72
2022/01/07 05:39:51;;;;;;;28.87;15.57;;;;;;;3.50;93.08;92327.28;4997148;28;20633;-72
2022/01/07 05:42:19;;;;;;;21.63;14.63;;;;;;;3.51;93.49;92343.09;5012568;28;20520;-72
2022/01/07 05:44:46;;;;;;;20.23;14.40;;;;;;;3.55;91.34;92313.00;5000534;28;20488;-72
2022/01/07 05:47:15;;;;;;;29.47;15.73;;;;;;;3.75;92.57;92347.56;4992280;28;20501;-72
2022/01/07 05:49:42;;;;;;;26.50;16.57;;;;;;;3.25;93.05;92294.53;4993857;28;20579;-72
2022/01/07 05:52:09;;;;;;;25.33;14.93;;;;;;;3.75;91.36;92363.38;4994875;28;20525;-72
2022/01/07 05:54:37;;;;;;;29.67;16.40;;;;;;;3.64;90.41;92341.97;4995567;28;20543;-75
2022/01/07 05:57:05;;;;;;;23.00;14.37;;;;;;;3.55;91.23;92333.00;4992316;28;20566;-75
2022/01/07 05:59:32;;;;;;;19.23;13.03;;;;;;;3.59;91.81;92356.25;4983571;28;20588;-73
2022/01/07 06:02:00;;;;;;;20.30;12.83;;;;;;;3.43;93.00;92344.94;4983407;28;20483;-72
2022/01/07 06:04:28;;;;;;;28.23;17.47;;;;;;;3.45;93.30;92355.69;4985211;28;20475;-73
2022/01/07 06:06:56;;;;;;;11.07;9.27;;;;;;;3.10;94.34;92346.44;4987527;28;20522;-73
2022/01/07 06:09:23;;;;;;;6.83;6.17;;;;;;;2.99;95.74;92361.56;4982864;28;20540;-73
2022/01/07 06:11:51;;;;;;;9.13;6.77;;;;;;;2.87;94.68;92330.19;4980881;28;20272;-73
2022/01/07 06:14:18;;;;;;;9.37;8.57;;;;;;;3.17;95.03;92377.88;4990539;28;20615;-72
2022/01/07 06:16:45;;;;;;;8.40;7.60;;;;;;;3.06;95.61;92383.06;4983777;28;20446;-73
2022/01/07 06:19:13;;;;;;;15.87;12.07;;;;;;;3.18;94.86;92385.34;4992042;28;20222;-72
2022/01/07 06:21:41;;;;;;;18.77;14.17;;;;;;;2.91;97.05;92378.38;4986458;28;20221;-73
2022/01/07 06:24:09;;;;;;;34.73;18.33;;;;;;;2.93;97.66;92384.13;4990574;28;20316;-72
2022/01/07 06:26:38;;;;;;;41.47;19.40;;;;;;;2.71;96.94;92328.00;4985273;28;20603;-74
2022/01/07 06:29:05;;;;;;;20.73;12.37;;;;;;;2.71;96.87;92328.84;4989009;28;20549;-74
2022/01/07 06:31:32;;;;;;;37.93;21.13;;;;;;;2.57;96.21;92290.06;4987176;28;20559;-73
2022/01/07 06:34:02;;;;;;;25.90;13.73;;;;;;;3.04;96.65;92377.31;4987456;28;20496;-72
2022/01/07 06:36:30;;;;;;;22.77;12.13;;;;;;;3.06;96.61;92375.59;4985309;28;20468;-73
2022/01/07 06:38:59;;;;;;;16.03;12.67;;;;;;;3.20;96.28;92390.31;4986751;28;20606;-73
2022/01/07 06:41:26;;;;;;;24.40;13.53;;;;;;;3.16;96.92;92403.69;4989407;28;20595;-73
2022/01/07 06:43:54;;;;;;;24.60;13.77;;;;;;;2.67;97.65;92346.38;4993142;28;20258;-73
2022/01/07 06:46:35;;;;;;;35.20;19.23;;;;;;;3.09;98.01;92403.00;4987209;28;20481;-73
2022/01/07 06:49:03;;;;;;;42.33;22.40;;;;;;;3.19;97.73;92416.94;4988046;28;20578;-72
2022/01/07 06:51:31;;;;;;;55.93;26.27;;;;;;;3.28;96.93;92423.44;4992894;28;20479;-72
2022/01/07 06:57:22;;;;;;;41.90;21.00;;;;;;;3.23;97.28;92410.22;4983708;28;20521;-73
2022/01/07 06:59:50;;;;;;;25.77;14.97;;;;;;;3.00;98.08;92403.16;4998255;28;20525;-72
2022/01/07 07:02:18;;;;;;;29.17;15.30;;;;;;;2.97;98.98;92423.19;4997490;28;20551;-73
2022/01/07 07:04:46;;;;;;;28.47;15.93;;;;;;;2.96;99.61;92418.19;4995570;28;20737;-73
2022/01/07 07:07:14;;;;;;;12.80;11.50;;;;;;;2.88;99.99;92406.69;4995899;28;20536;-72
2022/01/07 07:09:41;;;;;;;17.40;10.43;;;;;;;2.88;100.00;92415.84;4994842;28;20474;-75
2022/01/07 07:12:12;;;;;;;8.60;7.70;;;;;;;2.91;100.00;92414.13;4991410;28;20548;-73
2022/01/07 07:14:40;;;;;;;6.10;5.70;;;;;;;2.91;100.00;92410.81;4984670;28;20206;-73
2022/01/07 07:17:08;;;;;;;8.37;7.57;;;;;;;2.93;100.00;92404.91;4990013;28;20599;-74
2022/01/07 07:19:35;;;;;;;8.13;7.40;;;;;;;2.97;100.00;92408.22;4993270;28;20234;-73
2022/01/07 07:22:03;;;;;;;7.37;6.80;;;;;;;2.96;100.00;92388.25;4991360;28;20654;-73
2022/01/07 07:24:30;;;;;;;14.33;11.60;;;;;;;3.11;100.00;92393.78;4987063;28;20474;-73
2022/01/07 07:26:58;;;;;;;10.07;9.17;;;;;;;3.42;100.00;92411.53;4990499;28;20207;-74
2022/01/07 07:29:25;;;;;;;17.60;10.97;;;;;;;3.45;99.32;92386.47;4994979;28;20257;-72
2022/01/07 07:31:57;;;;;;;20.27;13.80;;;;;;;3.64;98.38;92397.75;4996858;28;20215;-75
2022/01/07 07:37:10;;;;;;;128.77;50.10;;;;;;;3.89;96.71;92393.06;4986563;28;20592;-75
2022/01/07 07:39:38;;;;;;;87.80;36.37;;;;;;;3.98;96.69;92409.53;4988451;28;20589;-75
2022/01/07 07:42:08;;;;;;;106.70;49.97;;;;;;;3.97;96.39;92408.72;4992315;28;20673;-74
2022/01/07 07:44:35;;;;;;;109.90;44.17;;;;;;;4.01;96.00;92417.78;4990109;28;20463;-74
2022/01/07 07:47:04;;;;;;;89.63;41.10;;;;;;;3.94;95.89;92405.47;4992127;28;20206;-73
2022/01/07 07:49:32;;;;;;;63.30;28.37;;;;;;;3.87;95.55;92407.28;4991186;28;20481;-73
2022/01/07 07:51:59;;;;;;;83.77;36.23;;;;;;;3.93;95.47;92417.16;4989640;28;20579;-74
2022/01/07 07:54:27;;;;;;;54.27;28.80;;;;;;;3.84;96.21;92392.34;4992854;28;20576;-74
2022/01/07 07:56:57;;;;;;;49.80;26.63;;;;;;;3.94;95.57;92390.47;4990272;28;20466;-74
2022/01/07 07:59:24;;;;;;;66.17;28.83;;;;;;;4.05;95.04;92394.38;4987431;28;20663;-72
2022/01/07 08:01:52;;;;;;;47.40;25.27;;;;;;;4.21;94.17;92407.38;4992221;28;20258;-73
2022/01/07 08:04:21;;;;;;;24.63;14.93;;;;;;;4.27;94.23;92416.41;4989987;28;20229;-75
2022/01/07 08:06:49;;;;;;;30.10;16.10;;;;;;;4.23;93.66;92408.13;4985125;28;20203;-74
2022/01/07 08:09:17;;;;;;;33.57;16.67;;;;;;;4.33;93.95;92414.59;4987986;28;20567;-74
2022/01/07 08:11:53;;;;;;;42.93;16.33;;;;;;;4.35;94.37;92409.53;4984744;28;20567;-74
2022/01/07 08:17:06;;;;;;;48.20;20.43;;;;;;;4.53;93.81;92424.94;4984062;28;20590;-73
2022/01/07 08:19:36;;;;;;;44.33;21.30;;;;;;;4.61;92.84;92431.47;4992640;28;20621;-73
2022/01/07 08:22:04;;;;;;;47.30;20.20;;;;;;;4.50;92.93;92419.22;4992247;28;20589;-73
2022/01/07 08:24:31;;;;;;;22.47;12.27;;;;;;;4.51;92.50;92421.66;4986355;28;20646;-73
2022/01/07 08:26:59;;;;;;;23.17;10.90;;;;;;;4.56;92.44;92424.06;4983881;28;20226;-73
2022/01/07 08:29:30;;;;;;;25.37;11.10;;;;;;;4.63;92.50;92428.03;4989476;28;20594;-73
2022/01/07 08:34:57;;;;;;;23.43;12.03;;;;;;;4.75;92.00;92416.94;4988014;28;20468;-73
2022/01/07 08:37:27;;;;;;;21.23;11.63;;;;;;;4.87;92.16;92427.47;4981112;28;20500;-73
2022/01/07 08:39:55;;;;;;;31.97;18.87;;;;;;;4.95;91.00;92432.31;4989438;28;20282;-74
2022/01/07 08:42:24;;;;;;;35.93;18.20;;;;;;;4.73;91.00;92389.44;4991165;28;20591;-74
2022/01/07 08:44:54;;;;;;;55.43;25.47;;;;;;;5.13;90.87;92438.50;4989393;28;20555;-74
2022/01/07 08:47:23;;;;;;;26.67;16.37;;;;;;;5.21;89.69;92429.13;4984470;28;20538;-74
2022/01/07 08:49:54;;;;;;;25.97;14.83;;;;;;;5.18;89.98;92409.19;4986297;28;20552;-76
2022/01/07 08:52:21;;;;;;;32.90;17.30;;;;;;;5.36;90.07;92427.03;4990202;28;20470;-75
2022/01/07 08:54:51;;;;;;;41.93;16.67;;;;;;;5.44;89.44;92424.34;4985354;28;20235;-75
2022/01/07 08:57:20;;;;;;;60.10;21.17;;;;;;;5.40;89.52;92406.09;4990939;28;20621;-76
2022/01/07 08:59:51;;;;;;;51.43;22.73;;;;;;;5.39;88.57;92421.97;4989249;28;20232;-77
2022/01/07 09:02:19;;;;;;;45.00;25.33;;;;;;;5.41;88.70;92381.81;4986699;28;20611;-76
2022/01/07 09:04:46;;;;;;;59.33;25.17;;;;;;;5.78;88.02;92410.03;4990251;28;20618;-74
2022/01/07 09:07:15;;;;;;;52.73;25.60;;;;;;;5.98;86.91;92419.50;4991773;28;20573;-75
2022/01/07 09:09:42;;;;;;;47.47;23.40;;;;;;;6.00;86.49;92407.75;4990352;28;20295;-75
2022/01/07 09:12:10;;;;;;;70.83;29.03;;;;;;;6.24;86.49;92413.75;4994145;28;20654;-73
2022/01/07 09:14:37;;;;;;;63.03;27.90;;;;;;;6.49;85.91;92414.63;4992039;28;20637;-74
2022/01/07 09:17:05;;;;;;;88.83;35.13;;;;;;;6.72;84.87;92416.44;4992841;28;20272;-73
2022/01/07 09:19:33;;;;;;;74.93;31.23;;;;;;;6.90;83.48;92417.53;4994322;28;20526;-73
2022/01/07 09:22:00;;;;;;;60.57;28.70;;;;;;;7.08;83.18;92409.41;4994625;28;20599;-74
2022/01/07 09:24:29;;;;;;;69.10;24.93;;;;;;;7.33;83.13;92399.34;4992999;28;20608;-73
2022/01/07 09:26:57;;;;;;;49.50;22.33;;;;;;;7.50;81.04;92415.50;4993012;28;20206;-74
2022/01/07 09:29:24;;;;;;;27.77;14.00;;;;;;;7.44;79.80;92413.19;4995008;28;20578;-75
2022/01/07 09:31:51;;;;;;;23.87;12.77;;;;;;;7.54;78.39;92416.22;4994548;28;20506;-74
2022/01/07 09:34:19;;;;;;;39.03;17.77;;;;;;;7.58;79.00;92392.63;4989612;28;20279;-73
2022/01/07 09:36:48;;;;;;;40.03;17.67;;;;;;;7.72;78.51;92412.22;4983778;28;20280;-73
2022/01/07 09:39:15;;;;;;;39.13;16.67;;;;;;;7.75;78.11;92404.59;4987860;28;20487;-73
2022/01/07 09:41:44;;;;;;;30.87;13.97;;;;;;;7.86;78.17;92380.72;4988875;28;20753;-73
2022/01/07 09:44:12;;;;;;;17.77;11.00;;;;;;;8.06;76.80;92401.78;4992188;28;20567;-73
2022/01/07 09:46:41;;;;;;;22.63;10.10;;;;;;;8.04;75.96;92394.31;4991570;28;20520;-73
2022/01/07 09:49:09;;;;;;;18.37;10.77;;;;;;;8.09;75.96;92394.97;4989741;28;20607;-73
2022/01/07 09:51:39;;;;;;;21.70;11.23;;;;;;;8.10;76.75;92353.84;4992449;28;20577;-73
2022/01/07 09:54:07;;;;;;;15.30;10.33;;;;;;;8.57;76.42;92386.44;4994454;28;20558;-73
2022/01/07 09:56:35;;;;;;;13.37;7.27;;;;;;;8.68;74.58;92401.97;4996097;28;20648;-73
2022/01/07 09:59:05;;;;;;;7.90;6.37;;;;;;;8.84;73.79;92392.13;4994818;28;20266;-74
2022/01/07 10:01:32;;;;;;;8.60;7.80;;;;;;;9.05;74.41;92379.47;4996537;28;20497;-73
2022/01/07 10:03:59;;;;;;;5.70;4.77;;;;;;;9.08;73.45;92388.59;4995952;28;20631;-73
2022/01/07 10:06:28;;;;;;;8.77;4.97;;;;;;;9.02;73.07;92387.16;4993786;28;20202;-72
2022/01/07 10:09:05;;;;;;;5.13;4.73;;;;;;;8.96;74.22;92374.78;4993986;28;20542;-74
2022/01/07 10:11:33;;;;;;;6.83;6.03;;;;;;;9.13;73.34;92377.44;4994037;28;20658;-73
2022/01/07 10:14:21;;;;;;;6.10;5.60;;;;;;;9.30;73.23;92366.66;4996064;28;20567;-73
2022/01/07 10:16:51;;;;;;;43.20;15.00;;;;;;;9.41;73.12;92361.16;4996245;28;20596;-73
2022/01/07 10:19:33;;;;;;;88.47;31.90;;;;;;;9.03;72.16;92322.47;4992854;28;20573;-73
2022/01/07 10:22:03;;;;;;;91.57;26.87;;;;;;;9.29;72.15;92357.50;4995997;28;20228;-73
2022/01/07 10:24:58;;;;;;;60.20;21.63;;;;;;;9.44;71.24;92339.19;4995592;28;20512;-73
2022/01/07 10:27:27;;;;;;;268.43;87.47;;;;;;;9.87;70.87;92373.44;4994644;28;20207;-73
2022/01/07 10:29:56;;;;;;;77.10;27.53;;;;;;;9.79;70.45;92352.78;4995513;28;20552;-73
2022/01/07 10:32:29;;;;;;;34.83;18.60;;;;;;;9.94;70.15;92347.06;4995820;28;20591;-73
2022/01/07 10:35:08;;;;;;;38.07;14.60;;;;;;;10.70;67.88;92368.00;4994249;28;20590;-72
2022/01/07 10:37:36;;;;;;;29.60;12.93;;;;;;;11.44;65.07;92374.47;4995341;28;20190;-73
2022/01/07 10:40:21;;;;;;;16.00;10.10;;;;;;;12.09;62.12;92395.66;4993122;28;20689;-73
2022/01/07 10:42:48;;;;;;;27.07;14.07;;;;;;;12.52;60.30;92380.69;4991971;28;20558;-72
2022/01/07 10:45:17;;;;;;;12.67;7.40;;;;;;;12.10;60.09;92384.63;4994375;28;20591;-73
2022/01/07 10:47:49;;;;;;;8.63;7.70;;;;;;;12.06;60.41;92367.94;4994713;28;20534;-73
2022/01/07 10:50:17;;;;;;;21.00;10.93;;;;;;;11.67;61.55;92350.53;4994822;28;20560;-73
2022/01/07 10:52:45;;;;;;;15.97;8.40;;;;;;;11.16;63.67;92334.56;4999351;28;20563;-74
2022/01/07 10:55:18;;;;;;;18.60;12.03;;;;;;;10.99;64.83;92324.44;4997571;28;20637;-73
2022/01/07 10:57:47;;;;;;;19.40;10.00;;;;;;;11.12;65.43;92317.91;4994127;28;20642;-72
2022/01/07 11:00:18;;;;;;;11.20;7.67;;;;;;;11.86;63.81;92338.59;4990972;28;20222;-71
2022/01/07 11:02:46;;;;;;;13.87;7.87;;;;;;;12.13;61.52;92354.06;4993282;28;20570;-71
2022/01/07 11:05:17;;;;;;;21.40;10.70;;;;;;;12.48;60.09;92346.28;4990143;28;20685;-71
2022/01/07 11:07:45;;;;;;;28.00;15.23;;;;;;;13.12;58.16;92377.38;4993566;28;20504;-72
2022/01/07 11:10:12;;;;;;;15.57;10.13;;;;;;;13.03;57.31;92369.41;4991461;28;20222;-72
2022/01/07 11:12:41;;;;;;;12.90;7.37;;;;;;;12.89;58.37;92362.59;4994272;28;20299;-72
2022/01/07 11:15:10;;;;;;;9.53;5.33;;;;;;;12.57;58.06;92321.25;4995200;28;20645;-72
2022/01/07 11:17:38;;;;;;;6.03;5.57;;;;;;;12.61;58.58;92319.41;4995010;28;20463;-73
2022/01/07 11:20:09;;;;;;;7.77;6.87;;;;;;;12.65;58.71;92325.94;4989022;28;20495;-75
2022/01/07 11:22:40;;;;;;;23.97;10.30;;;;;;;12.34;59.31;92314.91;4988068;28;20574;-73
2022/01/07 11:25:10;;;;;;;87.63;28.90;;;;;;;11.84;60.90;92320.16;4994677;28;20548;-72
2022/01/07 11:27:49;;;;;;;16.80;10.60;;;;;;;11.17;62.68;92269.63;4993331;28;20222;-72
2022/01/07 11:30:18;;;;;;;10.73;7.87;;;;;;;10.67;63.87;92283.06;4990794;28;20499;-73
2022/01/07 11:32:48;;;;;;;31.90;11.23;;;;;;;10.54;66.06;92286.25;4992227;28;20685;-72
2022/01/07 11:35:47;;;;;;;14.93;8.93;;;;;;;10.53;66.02;92294.75;4991982;28;20598;-72
2022/01/07 11:38:17;;;;;;;8.87;7.10;;;;;;;10.24;66.40;92253.19;4993086;28;20563;-71
2022/01/07 11:40:47;;;;;;;17.07;9.43;;;;;;;10.48;66.83;92294.16;4992849;28;20672;-72
2022/01/07 11:43:31;;;;;;;8.47;7.67;;;;;;;10.35;67.54;92286.31;4992261;28;20207;-73
2022/01/07 11:46:00;;;;;;;7.73;5.60;;;;;;;10.22;67.56;92280.19;4996960;28;20599;-73
2022/01/07 11:48:30;;;;;;;19.53;9.87;;;;;;;10.10;68.43;92279.03;4998018;28;20257;-73
2022/01/07 11:51:18;;;;;;;17.83;11.20;;;;;;;9.91;68.71;92265.66;4999411;28;20523;-73